sensor_id;sensor_type;location;lat;lon;timestamp;P1;durP1;ratioP1;P2;durP2;ratioP2
32641;SDS011;19323;56.072;9.698;2022-07-29T00:01:00;1.80;;;0.60;;
32641;SDS011;19323;56.072;9.698;2022-07-29T00:03:27;1.75;;;0.90;;
32641;SDS011;19323;56.072;9.698;2022-07-29T00:05:53;2.05;;;0.60;;
32641;SDS011;19323;56.072;9.698;2022-07-29T00:08:20;2.08;;;1.23;;
32641;SDS011;19323;56.072;9.698;2022-07-29T00:10:47;1.00;;;0.80;;
32641;SDS011;19323;56.072;9.698;2022-07-29T00:13:13;0.68;;;0.45;;
32641;SDS011;19323;56.072;9.698;2022-07-29T00:15:40;1.75;;;1.08;;
32641;SDS011;19323;56.072;9.698;2022-07-29T00:18:07;4.63;;;0.75;;
32641;SDS011;19323;56.072;9.698;2022-07-29T00:20:33;1.88;;;0.73;;
32641;SDS011;19323;56.072;9.698;2022-07-29T00:23:00;1.33;;;0.60;;
32641;SDS011;19323;56.072;9.698;2022-07-29T00:25:26;1.05;;;0.60;;
32641;SDS011;19323;56.072;9.698;2022-07-29T00:27:53;2.38;;;0.50;;
32641;SDS011;19323;56.072;9.698;2022-07-29T00:30:19;3.45;;;0.57;;
32641;SDS011;19323;56.072;9.698;2022-07-29T00:32:46;0.82;;;0.45;;
32641;SDS011;19323;56.072;9.698;2022-07-29T00:35:12;0.98;;;0.50;;
32641;SDS011;19323;56.072;9.698;2022-07-29T00:37:58;1.15;;;0.57;;
32641;SDS011;19323;56.072;9.698;2022-07-29T00:40:27;1.58;;;0.70;;
32641;SDS011;19323;56.072;9.698;2022-07-29T00:42:53;1.58;;;0.65;;
32641;SDS011;19323;56.072;9.698;2022-07-29T00:45:20;0.70;;;0.50;;
32641;SDS011;19323;56.072;9.698;2022-07-29T00:47:48;1.92;;;0.60;;
32641;SDS011;19323;56.072;9.698;2022-07-29T00:50:14;2.03;;;0.75;;
32641;SDS011;19323;56.072;9.698;2022-07-29T00:52:41;0.85;;;0.45;;
32641;SDS011;19323;56.072;9.698;2022-07-29T00:55:12;0.98;;;0.70;;
32641;SDS011;19323;56.072;9.698;2022-07-29T00:57:40;2.95;;;0.43;;
32641;SDS011;19323;56.072;9.698;2022-07-29T01:00:09;1.20;;;0.68;;
32641;SDS011;19323;56.072;9.698;2022-07-29T01:02:40;3.40;;;0.80;;
32641;SDS011;19323;56.072;9.698;2022-07-29T01:05:07;1.10;;;0.60;;
32641;SDS011;19323;56.072;9.698;2022-07-29T01:07:34;0.60;;;0.43;;
32641;SDS011;19323;56.072;9.698;2022-07-29T01:10:06;1.88;;;0.50;;
32641;SDS011;19323;56.072;9.698;2022-07-29T01:12:33;1.38;;;1.02;;
32641;SDS011;19323;56.072;9.698;2022-07-29T01:15:02;0.50;;;0.50;;
32641;SDS011;19323;56.072;9.698;2022-07-29T01:29:03;0.52;;;0.38;;
32641;SDS011;19323;56.072;9.698;2022-07-29T01:34:38;1.27;;;0.50;;
32641;SDS011;19323;56.072;9.698;2022-07-29T01:37:29;1.33;;;0.70;;
32641;SDS011;19323;56.072;9.698;2022-07-29T01:40:19;1.60;;;0.57;;
32641;SDS011;19323;56.072;9.698;2022-07-29T01:45:19;2.25;;;0.50;;
32641;SDS011;19323;56.072;9.698;2022-07-29T01:48:03;1.65;;;0.93;;
32641;SDS011;19323;56.072;9.698;2022-07-29T01:50:36;1.40;;;0.68;;
32641;SDS011;19323;56.072;9.698;2022-07-29T01:53:07;1.48;;;0.57;;
32641;SDS011;19323;56.072;9.698;2022-07-29T01:55:38;1.55;;;0.70;;
32641;SDS011;19323;56.072;9.698;2022-07-29T01:58:08;1.52;;;0.75;;
32641;SDS011;19323;56.072;9.698;2022-07-29T02:00:36;1.20;;;0.80;;
32641;SDS011;19323;56.072;9.698;2022-07-29T02:03:09;1.20;;;0.60;;
32641;SDS011;19323;56.072;9.698;2022-07-29T02:05:37;1.02;;;0.40;;
32641;SDS011;19323;56.072;9.698;2022-07-29T02:08:06;1.10;;;0.43;;
32641;SDS011;19323;56.072;9.698;2022-07-29T02:10:34;2.17;;;1.05;;
32641;SDS011;19323;56.072;9.698;2022-07-29T02:13:02;1.67;;;0.60;;
32641;SDS011;19323;56.072;9.698;2022-07-29T02:15:30;1.35;;;0.47;;
32641;SDS011;19323;56.072;9.698;2022-07-29T02:18:08;0.90;;;0.60;;
32641;SDS011;19323;56.072;9.698;2022-07-29T02:20:39;1.27;;;0.60;;
32641;SDS011;19323;56.072;9.698;2022-07-29T02:23:10;1.13;;;0.60;;
32641;SDS011;19323;56.072;9.698;2022-07-29T02:25:38;0.85;;;0.60;;
32641;SDS011;19323;56.072;9.698;2022-07-29T02:28:08;0.75;;;0.47;;
32641;SDS011;19323;56.072;9.698;2022-07-29T02:30:36;0.88;;;0.45;;
32641;SDS011;19323;56.072;9.698;2022-07-29T02:33:07;1.42;;;0.60;;
32641;SDS011;19323;56.072;9.698;2022-07-29T02:35:36;0.52;;;0.50;;
32641;SDS011;19323;56.072;9.698;2022-07-29T02:38:04;0.93;;;0.60;;
32641;SDS011;19323;56.072;9.698;2022-07-29T02:40:49;1.20;;;0.70;;
32641;SDS011;19323;56.072;9.698;2022-07-29T02:43:17;2.60;;;0.60;;
32641;SDS011;19323;56.072;9.698;2022-07-29T02:45:47;1.00;;;0.60;;
32641;SDS011;19323;56.072;9.698;2022-07-29T02:48:19;2.35;;;0.40;;
32641;SDS011;19323;56.072;9.698;2022-07-29T02:50:53;0.93;;;0.50;;
32641;SDS011;19323;56.072;9.698;2022-07-29T02:53:27;1.38;;;0.50;;
32641;SDS011;19323;56.072;9.698;2022-07-29T02:55:59;1.02;;;0.70;;
32641;SDS011;19323;56.072;9.698;2022-07-29T02:58:30;1.27;;;0.40;;
32641;SDS011;19323;56.072;9.698;2022-07-29T03:01:00;0.75;;;0.50;;
32641;SDS011;19323;56.072;9.698;2022-07-29T03:03:34;1.83;;;0.70;;
32641;SDS011;19323;56.072;9.698;2022-07-29T03:06:03;0.80;;;0.57;;
32641;SDS011;19323;56.072;9.698;2022-07-29T03:08:32;0.63;;;0.47;;
32641;SDS011;19323;56.072;9.698;2022-07-29T03:10:59;0.88;;;0.50;;
32641;SDS011;19323;56.072;9.698;2022-07-29T03:13:27;1.08;;;0.73;;
32641;SDS011;19323;56.072;9.698;2022-07-29T03:15:54;2.30;;;0.70;;
32641;SDS011;19323;56.072;9.698;2022-07-29T03:18:21;0.50;;;0.43;;
32641;SDS011;19323;56.072;9.698;2022-07-29T03:20:48;0.50;;;0.50;;
32641;SDS011;19323;56.072;9.698;2022-07-29T03:23:18;1.33;;;0.63;;
32641;SDS011;19323;56.072;9.698;2022-07-29T03:25:46;1.90;;;0.50;;
32641;SDS011;19323;56.072;9.698;2022-07-29T03:28:12;0.60;;;0.50;;
32641;SDS011;19323;56.072;9.698;2022-07-29T03:30:41;1.30;;;0.68;;
32641;SDS011;19323;56.072;9.698;2022-07-29T03:33:09;1.02;;;0.50;;
32641;SDS011;19323;56.072;9.698;2022-07-29T03:35:39;1.85;;;0.40;;
32641;SDS011;19323;56.072;9.698;2022-07-29T03:38:06;1.90;;;0.52;;
32641;SDS011;19323;56.072;9.698;2022-07-29T03:43:08;3.05;;;0.40;;
32641;SDS011;19323;56.072;9.698;2022-07-29T03:45:37;1.38;;;0.70;;
32641;SDS011;19323;56.072;9.698;2022-07-29T03:48:08;0.60;;;0.43;;
32641;SDS011;19323;56.072;9.698;2022-07-29T03:50:38;1.40;;;0.70;;
32641;SDS011;19323;56.072;9.698;2022-07-29T03:53:05;1.23;;;0.50;;
32641;SDS011;19323;56.072;9.698;2022-07-29T03:55:33;0.45;;;0.40;;
32641;SDS011;19323;56.072;9.698;2022-07-29T03:58:06;0.60;;;0.60;;
32641;SDS011;19323;56.072;9.698;2022-07-29T04:00:34;0.75;;;0.30;;
32641;SDS011;19323;56.072;9.698;2022-07-29T04:03:02;0.93;;;0.40;;
32641;SDS011;19323;56.072;9.698;2022-07-29T04:05:35;1.45;;;0.57;;
32641;SDS011;19323;56.072;9.698;2022-07-29T04:08:02;0.80;;;0.50;;
32641;SDS011;19323;56.072;9.698;2022-07-29T04:10:29;0.88;;;0.50;;
32641;SDS011;19323;56.072;9.698;2022-07-29T04:12:59;3.03;;;0.40;;
32641;SDS011;19323;56.072;9.698;2022-07-29T04:15:26;0.52;;;0.35;;
32641;SDS011;19323;56.072;9.698;2022-07-29T04:17:56;1.67;;;0.50;;
32641;SDS011;19323;56.072;9.698;2022-07-29T04:20:23;0.80;;;0.38;;
32641;SDS011;19323;56.072;9.698;2022-07-29T04:22:50;0.45;;;0.40;;
32641;SDS011;19323;56.072;9.698;2022-07-29T04:25:16;0.50;;;0.30;;
32641;SDS011;19323;56.072;9.698;2022-07-29T04:27:43;3.60;;;0.70;;
32641;SDS011;19323;56.072;9.698;2022-07-29T04:30:26;0.57;;;0.50;;
32641;SDS011;19323;56.072;9.698;2022-07-29T04:32:53;2.67;;;0.57;;
32641;SDS011;19323;56.072;9.698;2022-07-29T04:35:19;0.90;;;0.65;;
32641;SDS011;19323;56.072;9.698;2022-07-29T04:37:46;1.00;;;0.40;;
32641;SDS011;19323;56.072;9.698;2022-07-29T04:40:12;1.42;;;0.50;;
32641;SDS011;19323;56.072;9.698;2022-07-29T04:42:39;0.30;;;0.30;;
32641;SDS011;19323;56.072;9.698;2022-07-29T04:45:12;1.13;;;0.40;;
32641;SDS011;19323;56.072;9.698;2022-07-29T04:47:39;2.83;;;0.88;;
32641;SDS011;19323;56.072;9.698;2022-07-29T04:50:06;1.45;;;0.60;;
32641;SDS011;19323;56.072;9.698;2022-07-29T04:52:34;0.82;;;0.60;;
32641;SDS011;19323;56.072;9.698;2022-07-29T04:55:01;2.50;;;0.40;;
32641;SDS011;19323;56.072;9.698;2022-07-29T04:57:29;1.75;;;0.73;;
32641;SDS011;19323;56.072;9.698;2022-07-29T04:59:55;0.47;;;0.43;;
32641;SDS011;19323;56.072;9.698;2022-07-29T05:02:22;0.90;;;0.65;;
32641;SDS011;19323;56.072;9.698;2022-07-29T05:04:48;1.80;;;0.60;;
32641;SDS011;19323;56.072;9.698;2022-07-29T05:07:15;1.08;;;0.50;;
32641;SDS011;19323;56.072;9.698;2022-07-29T05:09:41;2.92;;;0.70;;
32641;SDS011;19323;56.072;9.698;2022-07-29T05:12:08;1.88;;;0.68;;
32641;SDS011;19323;56.072;9.698;2022-07-29T05:14:35;0.60;;;0.57;;
32641;SDS011;19323;56.072;9.698;2022-07-29T05:17:02;3.22;;;0.40;;
32641;SDS011;19323;56.072;9.698;2022-07-29T05:19:28;1.05;;;0.40;;
32641;SDS011;19323;56.072;9.698;2022-07-29T05:21:55;1.65;;;0.57;;
32641;SDS011;19323;56.072;9.698;2022-07-29T05:24:21;1.65;;;1.02;;
32641;SDS011;19323;56.072;9.698;2022-07-29T05:26:48;2.80;;;0.88;;
32641;SDS011;19323;56.072;9.698;2022-07-29T05:29:14;1.20;;;0.47;;
32641;SDS011;19323;56.072;9.698;2022-07-29T05:32:01;3.83;;;0.70;;
32641;SDS011;19323;56.072;9.698;2022-07-29T05:34:28;0.80;;;0.60;;
32641;SDS011;19323;56.072;9.698;2022-07-29T05:36:54;0.70;;;0.50;;
32641;SDS011;19323;56.072;9.698;2022-07-29T05:39:21;1.40;;;0.82;;
32641;SDS011;19323;56.072;9.698;2022-07-29T05:42:09;0.80;;;0.65;;
32641;SDS011;19323;56.072;9.698;2022-07-29T05:44:37;1.95;;;0.90;;
32641;SDS011;19323;56.072;9.698;2022-07-29T05:47:04;1.27;;;0.60;;
32641;SDS011;19323;56.072;9.698;2022-07-29T05:49:31;2.22;;;0.52;;
32641;SDS011;19323;56.072;9.698;2022-07-29T05:51:57;4.88;;;0.70;;
32641;SDS011;19323;56.072;9.698;2022-07-29T05:54:24;0.60;;;0.57;;
32641;SDS011;19323;56.072;9.698;2022-07-29T05:56:51;3.28;;;0.80;;
32641;SDS011;19323;56.072;9.698;2022-07-29T05:59:18;1.20;;;0.50;;
32641;SDS011;19323;56.072;9.698;2022-07-29T06:01:44;2.45;;;0.90;;
32641;SDS011;19323;56.072;9.698;2022-07-29T06:04:11;1.45;;;0.57;;
32641;SDS011;19323;56.072;9.698;2022-07-29T06:06:38;0.85;;;0.68;;
32641;SDS011;19323;56.072;9.698;2022-07-29T06:09:04;1.17;;;0.60;;
32641;SDS011;19323;56.072;9.698;2022-07-29T06:11:37;4.43;;;0.70;;
32641;SDS011;19323;56.072;9.698;2022-07-29T06:14:04;2.22;;;1.10;;
32641;SDS011;19323;56.072;9.698;2022-07-29T06:16:30;2.00;;;0.90;;
32641;SDS011;19323;56.072;9.698;2022-07-29T06:18:57;1.90;;;0.80;;
32641;SDS011;19323;56.072;9.698;2022-07-29T06:21:23;1.65;;;1.27;;
32641;SDS011;19323;56.072;9.698;2022-07-29T06:23:50;2.95;;;0.88;;
32641;SDS011;19323;56.072;9.698;2022-07-29T06:26:16;1.75;;;1.00;;
32641;SDS011;19323;56.072;9.698;2022-07-29T06:28:43;8.20;;;1.88;;
32641;SDS011;19323;56.072;9.698;2022-07-29T06:31:09;7.75;;;2.63;;
32641;SDS011;19323;56.072;9.698;2022-07-29T06:33:36;8.90;;;3.55;;
32641;SDS011;19323;56.072;9.698;2022-07-29T06:36:03;10.43;;;4.65;;
32641;SDS011;19323;56.072;9.698;2022-07-29T06:38:32;14.57;;;4.53;;
32641;SDS011;19323;56.072;9.698;2022-07-29T06:41:08;10.93;;;4.15;;
32641;SDS011;19323;56.072;9.698;2022-07-29T06:43:38;9.82;;;4.45;;
32641;SDS011;19323;56.072;9.698;2022-07-29T06:46:21;11.50;;;4.05;;
32641;SDS011;19323;56.072;9.698;2022-07-29T06:48:49;14.10;;;4.20;;
32641;SDS011;19323;56.072;9.698;2022-07-29T06:51:16;12.85;;;4.47;;
32641;SDS011;19323;56.072;9.698;2022-07-29T06:53:48;17.50;;;4.68;;
32641;SDS011;19323;56.072;9.698;2022-07-29T06:56:27;10.43;;;4.45;;
32641;SDS011;19323;56.072;9.698;2022-07-29T06:58:54;11.63;;;3.97;;
32641;SDS011;19323;56.072;9.698;2022-07-29T07:01:21;10.88;;;4.68;;
32641;SDS011;19323;56.072;9.698;2022-07-29T07:03:48;13.10;;;4.05;;
32641;SDS011;19323;56.072;9.698;2022-07-29T07:06:14;13.88;;;4.78;;
32641;SDS011;19323;56.072;9.698;2022-07-29T07:08:41;13.32;;;4.50;;
32641;SDS011;19323;56.072;9.698;2022-07-29T07:11:08;10.02;;;5.53;;
32641;SDS011;19323;56.072;9.698;2022-07-29T07:13:34;11.15;;;4.57;;
32641;SDS011;19323;56.072;9.698;2022-07-29T07:16:02;16.58;;;4.38;;
32641;SDS011;19323;56.072;9.698;2022-07-29T07:18:29;11.90;;;4.70;;
32641;SDS011;19323;56.072;9.698;2022-07-29T07:20:56;10.63;;;4.28;;
32641;SDS011;19323;56.072;9.698;2022-07-29T07:23:23;10.32;;;4.35;;
32641;SDS011;19323;56.072;9.698;2022-07-29T07:25:50;10.50;;;4.15;;
32641;SDS011;19323;56.072;9.698;2022-07-29T07:28:17;13.65;;;4.65;;
32641;SDS011;19323;56.072;9.698;2022-07-29T07:30:50;12.00;;;4.38;;
32641;SDS011;19323;56.072;9.698;2022-07-29T07:33:17;8.60;;;4.18;;
32641;SDS011;19323;56.072;9.698;2022-07-29T07:35:43;11.15;;;5.18;;
32641;SDS011;19323;56.072;9.698;2022-07-29T07:38:10;9.27;;;5.07;;
32641;SDS011;19323;56.072;9.698;2022-07-29T07:40:37;17.30;;;5.57;;
32641;SDS011;19323;56.072;9.698;2022-07-29T07:43:03;7.95;;;3.97;;
32641;SDS011;19323;56.072;9.698;2022-07-29T07:45:30;16.30;;;5.47;;
32641;SDS011;19323;56.072;9.698;2022-07-29T07:47:59;11.98;;;4.18;;
32641;SDS011;19323;56.072;9.698;2022-07-29T07:50:26;9.70;;;4.22;;
32641;SDS011;19323;56.072;9.698;2022-07-29T07:52:53;14.57;;;5.55;;
32641;SDS011;19323;56.072;9.698;2022-07-29T07:55:24;9.10;;;4.85;;
32641;SDS011;19323;56.072;9.698;2022-07-29T07:57:51;11.75;;;3.97;;
32641;SDS011;19323;56.072;9.698;2022-07-29T08:00:18;11.73;;;4.45;;
32641;SDS011;19323;56.072;9.698;2022-07-29T08:02:48;9.93;;;4.30;;
32641;SDS011;19323;56.072;9.698;2022-07-29T08:05:16;9.48;;;4.60;;
32641;SDS011;19323;56.072;9.698;2022-07-29T08:07:45;10.13;;;5.03;;
32641;SDS011;19323;56.072;9.698;2022-07-29T08:10:13;7.75;;;4.22;;
32641;SDS011;19323;56.072;9.698;2022-07-29T08:13:03;6.57;;;3.70;;
32641;SDS011;19323;56.072;9.698;2022-07-29T08:15:30;7.93;;;4.30;;
32641;SDS011;19323;56.072;9.698;2022-07-29T08:17:58;7.68;;;3.85;;
32641;SDS011;19323;56.072;9.698;2022-07-29T08:20:24;7.07;;;4.05;;
32641;SDS011;19323;56.072;9.698;2022-07-29T08:22:52;9.65;;;3.67;;
32641;SDS011;19323;56.072;9.698;2022-07-29T08:25:19;9.63;;;4.22;;
32641;SDS011;19323;56.072;9.698;2022-07-29T08:27:47;10.35;;;4.15;;
32641;SDS011;19323;56.072;9.698;2022-07-29T08:30:13;6.28;;;4.00;;
32641;SDS011;19323;56.072;9.698;2022-07-29T08:32:41;9.20;;;4.13;;
32641;SDS011;19323;56.072;9.698;2022-07-29T08:35:20;7.07;;;4.50;;
32641;SDS011;19323;56.072;9.698;2022-07-29T08:37:47;9.57;;;4.07;;
32641;SDS011;19323;56.072;9.698;2022-07-29T08:40:14;8.68;;;3.97;;
32641;SDS011;19323;56.072;9.698;2022-07-29T08:42:40;8.05;;;4.00;;
32641;SDS011;19323;56.072;9.698;2022-07-29T08:45:07;5.88;;;3.63;;
32641;SDS011;19323;56.072;9.698;2022-07-29T08:47:34;5.85;;;3.30;;
32641;SDS011;19323;56.072;9.698;2022-07-29T08:50:06;8.80;;;4.50;;
32641;SDS011;19323;56.072;9.698;2022-07-29T08:52:38;7.57;;;3.80;;
32641;SDS011;19323;56.072;9.698;2022-07-29T08:55:06;7.30;;;4.30;;
32641;SDS011;19323;56.072;9.698;2022-07-29T08:57:34;7.78;;;3.28;;
32641;SDS011;19323;56.072;9.698;2022-07-29T09:00:06;6.75;;;4.38;;
32641;SDS011;19323;56.072;9.698;2022-07-29T09:02:40;7.45;;;3.63;;
32641;SDS011;19323;56.072;9.698;2022-07-29T09:05:13;4.40;;;3.70;;
32641;SDS011;19323;56.072;9.698;2022-07-29T09:07:39;6.00;;;3.28;;
32641;SDS011;19323;56.072;9.698;2022-07-29T09:10:09;6.45;;;3.08;;
32641;SDS011;19323;56.072;9.698;2022-07-29T09:12:36;5.35;;;3.40;;
32641;SDS011;19323;56.072;9.698;2022-07-29T09:15:03;5.82;;;3.33;;
32641;SDS011;19323;56.072;9.698;2022-07-29T09:17:46;5.80;;;3.53;;
32641;SDS011;19323;56.072;9.698;2022-07-29T09:20:15;3.95;;;2.63;;
32641;SDS011;19323;56.072;9.698;2022-07-29T09:22:44;5.90;;;3.35;;
32641;SDS011;19323;56.072;9.698;2022-07-29T09:25:31;6.10;;;3.58;;
32641;SDS011;19323;56.072;9.698;2022-07-29T09:28:08;6.28;;;3.30;;
32641;SDS011;19323;56.072;9.698;2022-07-29T09:33:17;7.57;;;3.33;;
32641;SDS011;19323;56.072;9.698;2022-07-29T09:35:43;4.00;;;3.03;;
32641;SDS011;19323;56.072;9.698;2022-07-29T09:38:22;5.68;;;3.25;;
32641;SDS011;19323;56.072;9.698;2022-07-29T09:40:58;4.65;;;2.80;;
32641;SDS011;19323;56.072;9.698;2022-07-29T09:43:31;7.53;;;3.00;;
32641;SDS011;19323;56.072;9.698;2022-07-29T09:46:11;3.47;;;2.88;;
32641;SDS011;19323;56.072;9.698;2022-07-29T09:48:38;4.75;;;3.08;;
32641;SDS011;19323;56.072;9.698;2022-07-29T09:51:05;4.18;;;3.22;;
32641;SDS011;19323;56.072;9.698;2022-07-29T09:53:47;5.22;;;3.30;;
32641;SDS011;19323;56.072;9.698;2022-07-29T09:56:14;4.53;;;2.67;;
32641;SDS011;19323;56.072;9.698;2022-07-29T09:58:40;3.95;;;2.70;;
32641;SDS011;19323;56.072;9.698;2022-07-29T10:01:07;4.75;;;2.42;;
32641;SDS011;19323;56.072;9.698;2022-07-29T10:03:49;6.80;;;3.13;;
32641;SDS011;19323;56.072;9.698;2022-07-29T10:06:16;4.43;;;2.75;;
32641;SDS011;19323;56.072;9.698;2022-07-29T10:08:43;3.03;;;2.28;;
32641;SDS011;19323;56.072;9.698;2022-07-29T10:11:13;5.43;;;3.17;;
32641;SDS011;19323;56.072;9.698;2022-07-29T10:13:43;4.88;;;2.67;;
32641;SDS011;19323;56.072;9.698;2022-07-29T10:16:13;3.97;;;2.60;;
32641;SDS011;19323;56.072;9.698;2022-07-29T10:18:41;3.70;;;2.55;;
32641;SDS011;19323;56.072;9.698;2022-07-29T10:21:09;3.13;;;2.78;;
32641;SDS011;19323;56.072;9.698;2022-07-29T10:23:56;3.75;;;2.65;;
32641;SDS011;19323;56.072;9.698;2022-07-29T10:26:26;3.83;;;2.78;;
32641;SDS011;19323;56.072;9.698;2022-07-29T10:28:55;4.47;;;2.88;;
32641;SDS011;19323;56.072;9.698;2022-07-29T10:31:24;3.22;;;2.38;;
32641;SDS011;19323;56.072;9.698;2022-07-29T10:34:05;3.20;;;2.40;;
32641;SDS011;19323;56.072;9.698;2022-07-29T10:37:02;4.32;;;2.45;;
32641;SDS011;19323;56.072;9.698;2022-07-29T10:42:22;6.00;;;2.60;;
32641;SDS011;19323;56.072;9.698;2022-07-29T10:44:59;4.68;;;2.70;;
32641;SDS011;19323;56.072;9.698;2022-07-29T10:47:27;3.03;;;2.10;;
32641;SDS011;19323;56.072;9.698;2022-07-29T10:58:21;3.03;;;2.22;;
32641;SDS011;19323;56.072;9.698;2022-07-29T11:00:53;3.13;;;2.17;;
32641;SDS011;19323;56.072;9.698;2022-07-29T11:06:15;3.13;;;2.17;;
32641;SDS011;19323;56.072;9.698;2022-07-29T11:08:43;3.50;;;1.90;;
32641;SDS011;19323;56.072;9.698;2022-07-29T11:14:13;4.47;;;2.10;;
32641;SDS011;19323;56.072;9.698;2022-07-29T11:19:42;2.20;;;1.88;;
32641;SDS011;19323;56.072;9.698;2022-07-29T11:22:31;2.17;;;1.60;;
32641;SDS011;19323;56.072;9.698;2022-07-29T11:25:35;2.70;;;2.00;;
32641;SDS011;19323;56.072;9.698;2022-07-29T11:28:16;2.35;;;1.60;;
32641;SDS011;19323;56.072;9.698;2022-07-29T11:30:50;2.63;;;1.88;;
32641;SDS011;19323;56.072;9.698;2022-07-29T11:33:30;2.65;;;2.25;;
32641;SDS011;19323;56.072;9.698;2022-07-29T11:36:18;2.03;;;1.67;;
32641;SDS011;19323;56.072;9.698;2022-07-29T11:38:53;2.22;;;1.70;;
32641;SDS011;19323;56.072;9.698;2022-07-29T11:45:09;2.47;;;1.30;;
32641;SDS011;19323;56.072;9.698;2022-07-29T11:47:59;4.22;;;1.85;;
32641;SDS011;19323;56.072;9.698;2022-07-29T11:50:46;1.73;;;1.52;;
32641;SDS011;19323;56.072;9.698;2022-07-29T11:53:14;1.80;;;1.48;;
32641;SDS011;19323;56.072;9.698;2022-07-29T11:55:41;2.47;;;1.45;;
32641;SDS011;19323;56.072;9.698;2022-07-29T11:58:21;2.58;;;1.52;;
32641;SDS011;19323;56.072;9.698;2022-07-29T12:00:51;1.98;;;1.50;;
32641;SDS011;19323;56.072;9.698;2022-07-29T12:03:27;1.73;;;1.48;;
32641;SDS011;19323;56.072;9.698;2022-07-29T12:06:02;1.52;;;1.23;;
32641;SDS011;19323;56.072;9.698;2022-07-29T12:08:43;1.85;;;1.48;;
32641;SDS011;19323;56.072;9.698;2022-07-29T12:11:17;2.35;;;1.90;;
32641;SDS011;19323;56.072;9.698;2022-07-29T12:13:47;1.60;;;1.50;;
32641;SDS011;19323;56.072;9.698;2022-07-29T12:16:15;2.85;;;1.45;;
32641;SDS011;19323;56.072;9.698;2022-07-29T12:18:59;1.80;;;1.30;;
32641;SDS011;19323;56.072;9.698;2022-07-29T12:21:27;1.55;;;1.25;;
32641;SDS011;19323;56.072;9.698;2022-07-29T12:23:55;2.42;;;1.75;;
32641;SDS011;19323;56.072;9.698;2022-07-29T12:26:30;2.15;;;1.58;;
32641;SDS011;19323;56.072;9.698;2022-07-29T12:28:59;2.25;;;1.42;;
32641;SDS011;19323;56.072;9.698;2022-07-29T12:31:28;1.50;;;1.35;;
32641;SDS011;19323;56.072;9.698;2022-07-29T12:34:07;1.55;;;1.30;;
32641;SDS011;19323;56.072;9.698;2022-07-29T12:36:34;2.05;;;1.30;;
32641;SDS011;19323;56.072;9.698;2022-07-29T12:39:01;1.63;;;1.30;;
32641;SDS011;19323;56.072;9.698;2022-07-29T12:41:28;2.28;;;1.58;;
32641;SDS011;19323;56.072;9.698;2022-07-29T12:43:55;1.98;;;1.38;;
32641;SDS011;19323;56.072;9.698;2022-07-29T12:46:22;1.70;;;1.52;;
32641;SDS011;19323;56.072;9.698;2022-07-29T12:48:52;2.40;;;1.40;;
32641;SDS011;19323;56.072;9.698;2022-07-29T12:51:28;1.90;;;1.55;;
32641;SDS011;19323;56.072;9.698;2022-07-29T12:54:02;1.90;;;1.42;;
32641;SDS011;19323;56.072;9.698;2022-07-29T12:56:40;1.58;;;1.30;;
32641;SDS011;19323;56.072;9.698;2022-07-29T12:59:13;1.50;;;1.05;;
32641;SDS011;19323;56.072;9.698;2022-07-29T13:01:41;1.48;;;1.38;;
32641;SDS011;19323;56.072;9.698;2022-07-29T13:04:08;1.27;;;1.15;;
32641;SDS011;19323;56.072;9.698;2022-07-29T13:06:38;2.25;;;1.40;;
32641;SDS011;19323;56.072;9.698;2022-07-29T13:09:08;1.50;;;1.05;;
32641;SDS011;19323;56.072;9.698;2022-07-29T13:11:37;1.48;;;1.30;;
32641;SDS011;19323;56.072;9.698;2022-07-29T13:14:35;1.35;;;1.25;;
32641;SDS011;19323;56.072;9.698;2022-07-29T13:17:14;1.27;;;1.05;;
32641;SDS011;19323;56.072;9.698;2022-07-29T13:22:10;2.05;;;1.83;;
32641;SDS011;19323;56.072;9.698;2022-07-29T13:24:45;1.77;;;1.40;;
32641;SDS011;19323;56.072;9.698;2022-07-29T13:27:17;1.77;;;1.02;;
32641;SDS011;19323;56.072;9.698;2022-07-29T13:29:45;2.00;;;1.13;;
32641;SDS011;19323;56.072;9.698;2022-07-29T13:32:12;2.13;;;1.45;;
32641;SDS011;19323;56.072;9.698;2022-07-29T13:34:39;1.02;;;0.93;;
32641;SDS011;19323;56.072;9.698;2022-07-29T13:37:06;1.50;;;1.13;;
32641;SDS011;19323;56.072;9.698;2022-07-29T13:39:33;1.20;;;1.10;;
32641;SDS011;19323;56.072;9.698;2022-07-29T13:41:59;1.73;;;1.63;;
32641;SDS011;19323;56.072;9.698;2022-07-29T13:44:26;1.00;;;0.90;;
32641;SDS011;19323;56.072;9.698;2022-07-29T13:46:53;2.45;;;1.20;;
32641;SDS011;19323;56.072;9.698;2022-07-29T13:49:19;1.65;;;1.20;;
32641;SDS011;19323;56.072;9.698;2022-07-29T13:51:46;2.00;;;1.55;;
32641;SDS011;19323;56.072;9.698;2022-07-29T13:54:12;1.10;;;0.82;;
32641;SDS011;19323;56.072;9.698;2022-07-29T13:56:39;1.08;;;0.88;;
32641;SDS011;19323;56.072;9.698;2022-07-29T13:59:05;1.58;;;1.25;;
32641;SDS011;19323;56.072;9.698;2022-07-29T14:01:32;2.17;;;1.27;;
32641;SDS011;19323;56.072;9.698;2022-07-29T14:03:58;1.50;;;1.33;;
32641;SDS011;19323;56.072;9.698;2022-07-29T14:06:25;1.27;;;1.17;;
32641;SDS011;19323;56.072;9.698;2022-07-29T14:08:55;1.33;;;1.23;;
32641;SDS011;19323;56.072;9.698;2022-07-29T14:11:21;2.78;;;1.23;;
32641;SDS011;19323;56.072;9.698;2022-07-29T14:13:48;1.38;;;1.25;;
32641;SDS011;19323;56.072;9.698;2022-07-29T14:16:14;0.98;;;0.90;;
32641;SDS011;19323;56.072;9.698;2022-07-29T14:18:41;1.30;;;0.68;;
32641;SDS011;19323;56.072;9.698;2022-07-29T14:21:07;1.75;;;0.90;;
32641;SDS011;19323;56.072;9.698;2022-07-29T14:23:34;1.70;;;1.00;;
32641;SDS011;19323;56.072;9.698;2022-07-29T14:26:07;0.73;;;0.73;;
32641;SDS011;19323;56.072;9.698;2022-07-29T14:28:38;1.35;;;0.98;;
32641;SDS011;19323;56.072;9.698;2022-07-29T14:31:07;1.13;;;0.90;;
32641;SDS011;19323;56.072;9.698;2022-07-29T14:33:33;1.75;;;0.82;;
32641;SDS011;19323;56.072;9.698;2022-07-29T14:36:00;1.40;;;1.02;;
32641;SDS011;19323;56.072;9.698;2022-07-29T14:38:26;0.80;;;0.68;;
32641;SDS011;19323;56.072;9.698;2022-07-29T14:40:53;0.98;;;0.80;;
32641;SDS011;19323;56.072;9.698;2022-07-29T14:43:19;1.65;;;1.13;;
32641;SDS011;19323;56.072;9.698;2022-07-29T14:45:46;0.80;;;0.80;;
32641;SDS011;19323;56.072;9.698;2022-07-29T14:48:13;1.05;;;0.95;;
32641;SDS011;19323;56.072;9.698;2022-07-29T14:50:40;1.33;;;0.85;;
32641;SDS011;19323;56.072;9.698;2022-07-29T14:53:06;0.90;;;0.77;;
32641;SDS011;19323;56.072;9.698;2022-07-29T14:55:33;0.85;;;0.73;;
32641;SDS011;19323;56.072;9.698;2022-07-29T14:57:59;1.25;;;1.15;;
32641;SDS011;19323;56.072;9.698;2022-07-29T15:00:35;0.85;;;0.80;;
32641;SDS011;19323;56.072;9.698;2022-07-29T15:03:03;3.88;;;0.93;;
32641;SDS011;19323;56.072;9.698;2022-07-29T15:05:30;0.63;;;0.50;;
32641;SDS011;19323;56.072;9.698;2022-07-29T15:07:58;1.10;;;0.98;;
32641;SDS011;19323;56.072;9.698;2022-07-29T15:10:25;1.45;;;0.65;;
32641;SDS011;19323;56.072;9.698;2022-07-29T15:12:55;1.58;;;0.82;;
32641;SDS011;19323;56.072;9.698;2022-07-29T15:15:22;2.80;;;1.00;;
32641;SDS011;19323;56.072;9.698;2022-07-29T15:17:48;2.08;;;1.30;;
32641;SDS011;19323;56.072;9.698;2022-07-29T15:20:15;5.53;;;1.13;;
32641;SDS011;19323;56.072;9.698;2022-07-29T15:22:41;3.70;;;1.15;;
32641;SDS011;19323;56.072;9.698;2022-07-29T15:25:09;2.20;;;0.98;;
32641;SDS011;19323;56.072;9.698;2022-07-29T15:27:35;2.65;;;1.10;;
32641;SDS011;19323;56.072;9.698;2022-07-29T15:30:02;1.25;;;1.00;;
32641;SDS011;19323;56.072;9.698;2022-07-29T15:32:29;3.67;;;1.10;;
32641;SDS011;19323;56.072;9.698;2022-07-29T15:34:55;6.50;;;1.25;;
32641;SDS011;19323;56.072;9.698;2022-07-29T15:37:22;3.08;;;0.90;;
32641;SDS011;19323;56.072;9.698;2022-07-29T15:39:48;6.60;;;0.77;;
32641;SDS011;19323;56.072;9.698;2022-07-29T15:42:15;2.42;;;0.93;;
32641;SDS011;19323;56.072;9.698;2022-07-29T15:44:43;1.80;;;1.08;;
32641;SDS011;19323;56.072;9.698;2022-07-29T15:47:09;3.15;;;1.00;;
32641;SDS011;19323;56.072;9.698;2022-07-29T15:49:37;3.22;;;1.40;;